Time;durP1;ratioP1;P1;durP2;ratioP2;P2;SDS_P1;SDS_P2;PMS_P1;PMS_P2;Temp;Humidity;BMP_temperature;BMP_pressure;BME280_temperature;BME280_humidity;BME280_pressure;Samples;Min_cycle;Max_cycle;Signal;HPM_P1;HPM_P2
2021/01/16 00:00:32;;;;;;;10.43;5.40;;;;;;;-2.47;75.71;102973.31;4943261;29;20051;-76
2021/01/16 00:02:58;;;;;;;12.07;5.68;;;;;;;-2.58;77.18;102961.38;4938766;29;20035;-78
2021/01/16 00:05:26;;;;;;;9.63;5.60;;;;;;;-2.67;77.69;102950.28;4921976;28;20106;-78
2021/01/16 00:08:19;;;;;;;9.27;5.57;;;;;;;-2.58;78.79;102961.38;4954552;29;20050;-80
2021/01/16 00:10:55;;;;;;;10.02;5.95;;;;;;;-2.61;77.49;102952.81;4974696;28;20404;-80
2021/01/16 00:13:27;;;;;;;11.18;5.70;;;;;;;-2.55;77.81;102952.78;4942747;28;20028;-78
2021/01/16 00:15:53;;;;;;;11.07;6.00;;;;;;;-2.76;77.32;102930.63;4958148;28;20047;-77
2021/01/16 00:18:21;;;;;;;9.55;6.22;;;;;;;-2.70;79.52;102929.75;4959827;28;20121;-78
2021/01/16 00:20:50;;;;;;;14.05;6.30;;;;;;;-2.61;79.13;102938.25;4953003;29;20039;-76
2021/01/16 00:23:16;;;;;;;11.15;6.13;;;;;;;-2.64;78.73;102925.41;4942106;29;20032;-76
2021/01/16 00:25:43;;;;;;;13.38;6.40;;;;;;;-2.62;79.59;102938.25;4955250;28;20062;-76
2021/01/16 00:28:19;;;;;;;10.95;6.07;;;;;;;-2.38;76.10;102943.25;4992569;28;20062;-76
2021/01/16 00:30:45;;;;;;;10.18;6.07;;;;;;;-2.44;76.61;102951.00;4958934;28;20077;-77
2021/01/16 00:33:25;;;;;;;10.35;5.75;;;;;;;-2.55;78.03;102929.66;4948531;28;20059;-76
2021/01/16 00:35:53;;;;;;;8.98;5.70;;;;;;;-2.51;77.61;102933.06;4942223;28;20039;-76
2021/01/16 00:38:19;;;;;;;10.82;6.22;;;;;;;-2.60;78.95;102936.53;4943380;28;20034;-78
2021/01/16 00:40:45;;;;;;;10.27;5.55;;;;;;;-2.61;79.90;102942.53;4970554;28;20497;-77
2021/01/16 00:43:13;;;;;;;8.32;5.15;;;;;;;-2.70;80.21;102928.03;4956742;29;20034;-76
2021/01/16 00:45:39;;;;;;;12.27;5.95;;;;;;;-2.64;80.04;102930.56;4961035;28;20035;-78
2021/01/16 00:48:06;;;;;;;9.48;5.30;;;;;;;-2.67;79.96;102928.00;4949848;29;20043;-77
2021/01/16 00:50:32;;;;;;;7.65;5.25;;;;;;;-2.72;80.52;102922.03;4963966;28;20036;-76
2021/01/16 00:52:58;;;;;;;8.85;5.60;;;;;;;-2.68;79.58;102925.44;4934327;28;20028;-78
2021/01/16 00:55:31;;;;;;;12.20;6.38;;;;;;;-2.75;80.73;102930.63;4944571;28;20373;-77
2021/01/16 00:57:57;;;;;;;11.57;6.15;;;;;;;-2.77;80.43;102924.66;4936929;29;20469;-77
2021/01/16 01:00:28;;;;;;;10.00;6.10;;;;;;;-2.68;79.80;102922.88;4922158;29;20043;-78
2021/01/16 01:02:55;;;;;;;10.32;6.28;;;;;;;-2.74;79.70;102916.91;4938973;29;20470;-76
2021/01/16 01:05:22;;;;;;;8.20;5.63;;;;;;;-2.73;78.67;102910.06;4912017;29;20075;-77
2021/01/16 01:07:50;;;;;;;7.63;4.97;;;;;;;-2.64;78.88;102911.72;4946204;29;20110;-80
2021/01/16 01:10:39;;;;;;;8.88;5.35;;;;;;;-2.75;78.19;102902.38;4939713;29;20068;-77
2021/01/16 01:13:05;;;;;;;8.45;5.30;;;;;;;-2.72;78.36;102910.91;4971158;28;20042;-77
2021/01/16 01:15:31;;;;;;;10.50;5.50;;;;;;;-2.77;79.84;102916.06;4971974;28;20039;-76
2021/01/16 01:17:58;;;;;;;8.57;5.55;;;;;;;-2.79;78.96;102904.94;4956105;29;20047;-76
2021/01/16 01:20:24;;;;;;;8.27;5.43;;;;;;;-2.79;79.79;102917.78;4955987;29;20039;-76
2021/01/16 01:22:50;;;;;;;7.70;5.28;;;;;;;-2.80;79.42;102906.66;4942736;29;20047;-75
2021/01/16 01:25:17;;;;;;;7.80;5.05;;;;;;;-2.82;78.90;102905.81;4905213;29;20047;-77
2021/01/16 01:27:53;;;;;;;7.60;5.03;;;;;;;-2.80;78.44;102909.22;4956447;29;20035;-77
2021/01/16 01:30:22;;;;;;;7.93;4.93;;;;;;;-2.74;79.77;102926.34;4939986;29;20035;-76
2021/01/16 01:32:48;;;;;;;7.80;4.78;;;;;;;-2.76;78.11;102908.34;4958596;28;20051;-78
2021/01/16 01:35:15;;;;;;;6.60;4.70;;;;;;;-2.72;78.64;102922.03;4943439;28;20039;-76
2021/01/16 01:37:43;;;;;;;8.50;5.30;;;;;;;-2.73;78.34;102907.50;4958688;28;20038;-78
2021/01/16 01:40:11;;;;;;;8.07;4.75;;;;;;;-2.77;78.59;102903.22;4958431;28;20366;-76
2021/01/16 01:42:37;;;;;;;10.40;4.90;;;;;;;-2.57;76.63;102921.09;4947719;29;20142;-77
2021/01/16 01:45:05;;;;;;;8.93;5.05;;;;;;;-2.62;77.38;102920.28;4944018;28;20417;-77
2021/01/16 01:47:30;;;;;;;9.30;5.15;;;;;;;-2.47;75.61;102909.06;4918747;29;20035;-78
2021/01/16 01:49:56;;;;;;;10.00;5.40;;;;;;;-2.40;74.62;102910.72;4931722;29;20042;-78
2021/01/16 01:52:22;;;;;;;8.85;4.97;;;;;;;-2.44;76.54;102920.16;4923198;29;20035;-78
2021/01/16 01:54:51;;;;;;;10.18;5.10;;;;;;;-2.54;75.47;102913.38;4933056;29;20039;-77
2021/01/16 01:57:19;;;;;;;9.93;5.05;;;;;;;-2.67;77.06;102909.19;4940998;29;20417;-78
2021/01/16 01:59:46;;;;;;;7.45;4.82;;;;;;;-2.75;77.40;102909.19;4939223;29;20031;-78
2021/01/16 02:02:11;;;;;;;9.18;5.55;;;;;;;-2.81;78.22;102907.50;4941063;28;20062;-77
2021/01/16 02:04:37;;;;;;;11.95;5.70;;;;;;;-2.53;77.33;102917.66;4942243;28;20477;-77
2021/01/16 02:07:27;;;;;;;8.68;5.43;;;;;;;-2.56;76.26;102930.53;4944503;29;20126;-76
2021/01/16 02:09:55;;;;;;;7.32;5.13;;;;;;;-2.65;77.95;102923.72;4939057;29;20043;-77
2021/01/16 02:12:22;;;;;;;10.15;5.93;;;;;;;-2.65;77.52;102917.75;4938737;29;20038;-77
2021/01/16 02:15:08;;;;;;;11.88;6.63;;;;;;;-2.36;75.85;102925.25;4930780;29;20033;-77
2021/01/16 02:17:41;;;;;;;11.20;6.40;;;;;;;-2.59;77.20;102908.25;4944846;28;20034;-77
2021/01/16 02:20:11;;;;;;;9.85;5.97;;;;;;;-2.55;77.91;102916.81;4990322;28;20155;-79
2021/01/16 02:22:51;;;;;;;11.15;6.57;;;;;;;-2.69;77.87;102908.31;4974222;28;20051;-78
2021/01/16 02:25:23;;;;;;;10.30;6.43;;;;;;;-2.61;77.04;102922.00;4950232;29;20039;-78
2021/01/16 02:28:04;;;;;;;10.48;6.43;;;;;;;-2.75;78.20;102909.19;4987444;28;20070;-78
2021/01/16 02:30:33;;;;;;;12.30;7.78;;;;;;;-2.86;79.01;102899.00;4963104;28;20137;-79
2021/01/16 02:33:02;;;;;;;9.32;6.38;;;;;;;-2.70;79.10;102899.75;4937646;29;20059;-77
2021/01/16 02:35:29;;;;;;;13.90;6.80;;;;;;;-2.70;78.92;102893.78;4947374;29;20028;-78
2021/01/16 02:38:10;;;;;;;11.70;7.22;;;;;;;-2.71;79.55;102915.19;4935139;29;20031;-78
2021/01/16 02:41:00;;;;;;;13.85;7.25;;;;;;;-2.76;78.39;102902.38;4919133;29;20169;-78
2021/01/16 02:43:44;;;;;;;11.10;6.60;;;;;;;-2.76;78.93;102900.66;4930399;29;20496;-77
2021/01/16 02:46:32;;;;;;;10.43;6.88;;;;;;;-2.55;77.58;102888.53;4925984;28;20297;-79
2021/01/16 02:49:06;;;;;;;11.40;6.88;;;;;;;-2.57;77.53;102887.69;4932129;29;20043;-79
2021/01/16 02:51:40;;;;;;;10.27;6.80;;;;;;;-2.64;77.90;102884.31;4922402;29;20039;-78
2021/01/16 02:54:09;;;;;;;12.63;6.72;;;;;;;-2.48;77.11;102886.81;4934898;29;20027;-78
2021/01/16 02:56:36;;;;;;;10.15;6.68;;;;;;;-2.42;76.28;102877.31;4903456;29;20042;-78
2021/01/16 02:59:03;;;;;;;10.77;6.78;;;;;;;-2.43;76.18;102874.75;4929496;29;20039;-78
2021/01/16 03:01:29;;;;;;;9.45;6.25;;;;;;;-2.45;76.90;102868.78;4921679;29;20411;-77
2021/01/16 03:03:54;;;;;;;9.73;6.22;;;;;;;-2.43;75.76;102870.50;4962554;28;20035;-77
2021/01/16 03:06:20;;;;;;;9.38;5.88;;;;;;;-2.49;75.36;102873.06;4972291;28;20538;-78
2021/01/16 03:08:46;;;;;;;9.75;6.05;;;;;;;-2.66;77.20;102862.06;4957471;28;20038;-77
2021/01/16 03:11:14;;;;;;;10.82;5.90;;;;;;;-2.52;76.07;102870.53;4939850;28;20030;-78
2021/01/16 03:13:41;;;;;;;11.60;6.95;;;;;;;-2.68;75.80;102858.66;4934693;29;20511;-77
2021/01/16 03:16:13;;;;;;;12.15;6.82;;;;;;;-2.64;75.82;102866.31;4922682;29;20054;-77
2021/01/16 03:18:43;;;;;;;12.48;7.13;;;;;;;-2.70;76.54;102879.22;4939925;29;20051;-80
2021/01/16 03:21:09;;;;;;;10.18;5.78;;;;;;;-2.66;75.97;102857.75;4952195;29;20035;-80
2021/01/16 03:23:35;;;;;;;10.68;6.63;;;;;;;-2.76;76.56;102858.69;4951316;29;20438;-78
2021/01/16 03:26:00;;;;;;;12.45;6.20;;;;;;;-2.82;76.92;102846.75;4942162;29;20038;-78
2021/01/16 03:28:26;;;;;;;12.10;6.03;;;;;;;-2.91;77.64;102851.09;4921504;29;20505;-77
2021/01/16 03:30:51;;;;;;;10.15;6.65;;;;;;;-2.94;77.55;102850.25;4905280;29;20039;-78
2021/01/16 03:33:17;;;;;;;9.40;6.65;;;;;;;-2.79;78.05;102866.41;4936120;29;20046;-78
2021/01/16 03:35:42;;;;;;;11.40;6.78;;;;;;;-2.70;77.24;102862.94;4920145;29;20039;-77
2021/01/16 03:38:08;;;;;;;13.10;7.20;;;;;;;-2.84;77.05;102858.75;4919906;29;20043;-78
2021/01/16 03:40:34;;;;;;;10.85;6.15;;;;;;;-2.90;77.85;102858.78;4933754;29;20091;-77
2021/01/16 03:42:59;;;;;;;11.25;6.53;;;;;;;-2.97;77.86;102845.09;4952263;29;20035;-77
2021/01/16 03:45:25;;;;;;;11.30;6.43;;;;;;;-2.89;78.94;102852.78;4970615;28;20428;-79
2021/01/16 03:47:51;;;;;;;10.40;6.38;;;;;;;-2.95;77.93;102842.53;4938513;29;20046;-78
2021/01/16 03:50:16;;;;;;;11.88;6.47;;;;;;;-3.03;78.00;102832.31;4938097;29;20122;-77
2021/01/16 03:52:42;;;;;;;9.90;6.18;;;;;;;-2.95;77.98;102843.38;4929943;29;20198;-79
2021/01/16 03:55:10;;;;;;;9.38;6.18;;;;;;;-2.92;78.89;102846.78;4919430;29;20039;-76
2021/01/16 03:57:36;;;;;;;12.48;7.00;;;;;;;-2.93;79.65;102851.09;4953784;29;20121;-77
2021/01/16 04:00:05;;;;;;;11.55;6.40;;;;;;;-3.00;79.80;102842.53;4937359;29;20038;-77
2021/01/16 04:02:31;;;;;;;11.57;6.72;;;;;;;-2.94;78.35;102851.94;4918714;29;20038;-78
2021/01/16 04:04:57;;;;;;;11.32;6.63;;;;;;;-2.99;78.74;102846.00;4935300;29;20027;-77
2021/01/16 04:07:23;;;;;;;10.07;6.03;;;;;;;-2.89;79.51;102863.03;4935273;29;20055;-77
2021/01/16 04:09:49;;;;;;;14.48;7.43;;;;;;;-2.89;78.98;102859.63;4950136;29;20115;-77
2021/01/16 04:12:14;;;;;;;10.52;6.72;;;;;;;-2.95;79.63;102863.09;4910355;29;20086;-78
2021/01/16 04:14:40;;;;;;;13.20;7.18;;;;;;;-2.86;78.10;102847.63;4932603;29;20047;-77
2021/01/16 04:17:07;;;;;;;12.20;6.88;;;;;;;-2.77;77.44;102847.56;4953092;29;20054;-78
2021/01/16 04:19:33;;;;;;;11.65;6.90;;;;;;;-2.70;77.02;102840.66;4933487;29;20040;-77
2021/01/16 04:21:59;;;;;;;12.32;7.00;;;;;;;-2.66;76.69;102862.91;4933882;29;20490;-78
2021/01/16 04:24:25;;;;;;;14.20;7.50;;;;;;;-2.75;77.88;102850.09;4932626;28;20047;-78
2021/01/16 04:26:51;;;;;;;13.15;7.30;;;;;;;-2.81;77.99;102842.44;4956480;29;20086;-77
2021/01/16 04:29:17;;;;;;;12.35;6.75;;;;;;;-2.80;76.72;102832.19;4921769;29;20043;-77
2021/01/16 04:31:43;;;;;;;10.27;6.05;;;;;;;-2.86;77.40;102837.34;4924393;29;20040;-79
2021/01/16 04:34:09;;;;;;;11.30;7.00;;;;;;;-2.79;78.14;102843.28;4954125;28;20031;-78
2021/01/16 04:36:35;;;;;;;11.35;6.78;;;;;;;-2.81;76.33;102833.03;4940205;29;20126;-78
2021/01/16 04:39:00;;;;;;;11.40;6.50;;;;;;;-2.75;76.41;102833.00;4909758;29;20572;-79
2021/01/16 04:41:29;;;;;;;9.48;6.05;;;;;;;-2.72;76.84;102837.25;4947529;29;20082;-77
2021/01/16 04:43:55;;;;;;;10.70;6.38;;;;;;;-2.60;76.17;102833.75;4931043;29;20031;-77
2021/01/16 04:46:22;;;;;;;12.10;6.82;;;;;;;-2.67;75.66;102834.69;4908181;29;20119;-78
2021/01/16 04:48:54;;;;;;;11.43;7.05;;;;;;;-2.71;77.48;102840.66;4950584;28;20124;-78
2021/01/16 04:51:21;;;;;;;11.00;6.90;;;;;;;-2.84;78.59;102834.78;4956299;28;20046;-78
2021/01/16 04:53:49;;;;;;;10.77;6.15;;;;;;;-2.96;78.12;102816.00;4920067;29;20493;-78
2021/01/16 04:56:16;;;;;;;10.68;6.60;;;;;;;-2.88;78.11;102822.78;4924342;29;20401;-79
2021/01/16 04:58:41;;;;;;;10.15;6.38;;;;;;;-2.92;79.58;102826.25;4924073;29;20035;-78
2021/01/16 05:01:09;;;;;;;11.10;6.70;;;;;;;-2.93;80.35;102822.84;4922594;29;20156;-78
2021/01/16 05:03:41;;;;;;;12.35;6.88;;;;;;;-2.86;79.52;102834.78;4939956;29;20035;-78
2021/01/16 05:06:12;;;;;;;11.65;6.72;;;;;;;-2.99;79.55;102817.75;4940550;29;20042;-77
2021/01/16 05:08:39;;;;;;;10.57;6.50;;;;;;;-2.89;79.93;102827.09;4937271;29;20031;-79
2021/01/16 05:11:14;;;;;;;10.68;6.28;;;;;;;-3.00;79.91;102814.28;4937533;28;20075;-78
2021/01/16 05:13:47;;;;;;;10.07;6.72;;;;;;;-2.88;78.65;102838.22;4921069;29;20036;-78
2021/01/16 05:16:14;;;;;;;12.35;6.35;;;;;;;-2.87;78.42;102821.94;4969135;28;20056;-78
2021/01/16 05:18:44;;;;;;;10.27;6.40;;;;;;;-2.89;78.98;102819.38;4921364;29;20039;-78
2021/01/16 05:21:11;;;;;;;10.32;6.10;;;;;;;-2.83;78.73;102829.59;4955815;28;20054;-78
2021/01/16 05:23:43;;;;;;;11.75;6.93;;;;;;;-2.92;79.42;102811.69;4943323;29;20054;-78
2021/01/16 05:26:09;;;;;;;10.50;6.57;;;;;;;-2.88;79.38;102800.56;4923710;29;20565;-77
2021/01/16 05:28:34;;;;;;;13.80;6.90;;;;;;;-2.79;78.86;102820.16;4939661;29;20035;-78
2021/01/16 05:31:04;;;;;;;10.88;6.35;;;;;;;-2.74;78.51;102808.16;4939005;29;20074;-79
2021/01/16 05:33:31;;;;;;;12.63;6.93;;;;;;;-2.80;78.66;102813.34;4936765;28;20085;-77
2021/01/16 05:36:00;;;;;;;11.32;6.50;;;;;;;-2.96;80.01;102795.47;4960764;28;20035;-79
2021/01/16 05:38:29;;;;;;;12.48;6.53;;;;;;;-2.92;80.64;102800.56;4949656;29;20449;-78
2021/01/16 05:40:56;;;;;;;9.95;6.57;;;;;;;-3.00;80.75;102793.75;4923659;29;20042;-79
2021/01/16 05:43:22;;;;;;;13.38;7.40;;;;;;;-2.92;80.98;102801.41;4924007;29;20035;-79
2021/01/16 05:45:51;;;;;;;10.65;6.35;;;;;;;-2.85;80.69;102802.25;4939066;28;20119;-78
2021/01/16 05:48:18;;;;;;;9.60;6.40;;;;;;;-2.99;79.67;102776.66;4939731;29;20039;-79
2021/01/16 05:50:43;;;;;;;10.13;6.18;;;;;;;-2.89;80.34;102791.13;4922584;29;20043;-77
2021/01/16 05:53:09;;;;;;;12.55;6.57;;;;;;;-2.88;79.99;102779.13;4935809;29;20039;-77
2021/01/16 05:55:36;;;;;;;11.25;6.40;;;;;;;-2.94;80.56;102762.06;4920359;29;20082;-78
2021/01/16 05:58:05;;;;;;;10.05;6.18;;;;;;;-2.81;80.22;102784.22;4920130;29;20074;-75
2021/01/16 06:00:35;;;;;;;11.98;6.22;;;;;;;-2.82;79.84;102773.97;4904355;29;20481;-78
2021/01/16 06:03:00;;;;;;;10.10;6.47;;;;;;;-2.84;79.53;102776.56;4958472;28;20042;-76
2021/01/16 06:05:26;;;;;;;9.25;6.15;;;;;;;-2.88;80.09;102767.16;4946468;28;20051;-78
2021/01/16 06:07:53;;;;;;;11.95;7.22;;;;;;;-2.85;79.88;102777.41;4956893;28;20043;-78
2021/01/16 06:10:20;;;;;;;12.15;6.95;;;;;;;-2.89;80.14;102773.16;4939275;29;20038;-77
2021/01/16 06:12:48;;;;;;;11.50;7.00;;;;;;;-2.82;77.85;102768.84;4955967;28;20043;-77
2021/01/16 06:15:16;;;;;;;10.57;6.68;;;;;;;-2.71;78.79;102779.03;4938989;29;20070;-78
2021/01/16 06:17:48;;;;;;;13.63;6.25;;;;;;;-2.73;80.51;102771.34;4939046;29;20081;-77
2021/01/16 06:20:16;;;;;;;10.27;5.97;;;;;;;-2.71;80.69;102776.44;4928171;29;20043;-78
2021/01/16 06:22:42;;;;;;;10.20;6.80;;;;;;;-2.76;80.61;102777.34;4921589;29;20083;-79
2021/01/16 06:25:36;;;;;;;9.95;5.60;;;;;;;-2.74;79.41;102772.19;4920160;29;20078;-78
2021/01/16 06:28:03;;;;;;;;;;;;;;;-2.78;79.95;102771.38;4940966;29;20043;-79
2021/01/16 06:30:32;;;;;;;10.63;6.13;;;;;;;-2.92;81.12;102746.63;4927021;28;19918;-78
2021/01/16 06:33:03;;;;;;;10.75;5.80;;;;;;;-2.91;80.43;102749.19;4945713;29;20039;-80
2021/01/16 06:35:29;;;;;;;10.55;6.43;;;;;;;-3.01;81.20;102735.56;4959173;28;20038;-78
2021/01/16 06:37:55;;;;;;;10.65;6.10;;;;;;;-2.92;80.59;102759.47;4974273;28;20047;-80
2021/01/16 06:40:28;;;;;;;10.65;5.95;;;;;;;-2.86;81.19;102756.84;4955970;28;20031;-77
2021/01/16 06:42:54;;;;;;;12.13;6.60;;;;;;;-2.90;81.01;102760.31;4949884;29;20077;-77
2021/01/16 06:45:25;;;;;;;10.02;6.03;;;;;;;-2.94;81.32;102754.34;4955084;29;20054;-77
2021/01/16 06:47:59;;;;;;;10.55;6.47;;;;;;;-2.98;81.74;102753.50;4956191;28;20042;-78
2021/01/16 06:50:26;;;;;;;9.18;5.85;;;;;;;-2.99;82.90;102749.25;4938515;29;20114;-78
2021/01/16 06:52:52;;;;;;;9.82;6.15;;;;;;;-2.98;82.52;102738.09;4954380;28;20089;-78
2021/01/16 06:55:19;;;;;;;12.13;5.82;;;;;;;-3.00;82.71;102746.69;4989260;28;20149;-77
2021/01/16 06:57:45;;;;;;;9.77;6.20;;;;;;;-2.96;80.16;102736.41;4948598;29;20042;-77
2021/01/16 07:00:12;;;;;;;10.93;6.63;;;;;;;-2.89;79.90;102744.06;4938342;28;20050;-78
2021/01/16 07:02:39;;;;;;;9.85;6.18;;;;;;;-3.02;80.60;102733.00;4948753;29;20031;-78
2021/01/16 07:05:06;;;;;;;10.50;5.72;;;;;;;-2.98;81.73;102739.81;4953126;29;20489;-77
2021/01/16 07:07:36;;;;;;;9.85;6.38;;;;;;;-3.03;82.24;102739.00;4949740;29;20093;-78
2021/01/16 07:10:11;;;;;;;9.95;5.78;;;;;;;-3.14;82.79;102728.81;4925106;28;20051;-78
2021/01/16 07:12:41;;;;;;;9.10;5.53;;;;;;;-3.14;81.38;102721.97;4968173;28;20036;-78
2021/01/16 07:15:08;;;;;;;8.93;6.03;;;;;;;-3.18;81.18;102706.59;4938905;29;20035;-78
2021/01/16 07:17:36;;;;;;;9.77;6.20;;;;;;;-3.21;81.26;102715.16;4922190;29;20039;-78
2021/01/16 07:20:04;;;;;;;9.93;5.63;;;;;;;-3.26;82.54;102716.88;4921897;29;20920;-78
2021/01/16 07:22:32;;;;;;;9.70;6.15;;;;;;;-3.28;80.96;102716.03;4950028;29;20118;-78
2021/01/16 07:25:00;;;;;;;10.35;6.30;;;;;;;-3.34;82.17;102716.94;4940756;28;20036;-76
2021/01/16 07:27:27;;;;;;;11.07;5.70;;;;;;;-3.44;83.92;102707.59;4912912;28;20042;-77
2021/01/16 07:29:57;;;;;;;11.73;6.28;;;;;;;-3.61;84.08;102701.72;4956825;28;20045;-77
2021/01/16 07:32:38;;;;;;;10.35;6.22;;;;;;;-3.63;83.59;102698.31;4931158;29;20046;-77
2021/01/16 07:35:09;;;;;;;8.40;5.70;;;;;;;-3.63;82.40;102699.16;4937597;29;20067;-77
2021/01/16 07:37:34;;;;;;;10.15;6.50;;;;;;;-3.69;82.42;102706.00;4918762;29;20036;-77
2021/01/16 07:40:00;;;;;;;10.75;6.68;;;;;;;-3.87;83.23;102704.38;4924314;29;20054;-78
2021/01/16 07:42:27;;;;;;;10.32;6.18;;;;;;;-3.94;83.85;102693.28;4932808;29;20036;-80
2021/01/16 07:45:08;;;;;;;11.70;6.63;;;;;;;-3.91;84.72;102706.09;4937967;29;20031;-77
2021/01/16 07:47:41;;;;;;;12.18;6.75;;;;;;;-3.88;84.74;102707.78;4945396;29;20039;-78
2021/01/16 07:50:19;;;;;;;12.27;6.20;;;;;;;-3.95;85.06;102696.72;4932012;29;20039;-78
2021/01/16 07:53:04;;;;;;;10.98;6.45;;;;;;;-3.98;84.38;102700.13;4952896;28;20589;-78
2021/01/16 07:55:44;;;;;;;9.10;5.78;;;;;;;-3.93;84.32;102689.88;4941392;28;20374;-79
2021/01/16 07:58:31;;;;;;;12.75;6.57;;;;;;;-3.72;84.11;102688.94;4948528;28;20489;-78
2021/01/16 08:01:07;;;;;;;12.07;6.68;;;;;;;-3.71;84.32;102677.81;4975961;28;20038;-77
2021/01/16 08:04:01;;;;;;;14.05;6.55;;;;;;;-3.92;84.87;102689.88;4956660;28;20127;-79
2021/01/16 08:06:52;;;;;;;14.60;6.38;;;;;;;-3.98;84.71;102692.44;4965860;28;20039;-76
2021/01/16 08:09:27;;;;;;;11.32;6.55;;;;;;;-4.00;84.81;102680.50;4949273;29;20479;-77
2021/01/16 08:11:53;;;;;;;11.98;6.65;;;;;;;-4.05;84.19;102682.22;4951750;29;20042;-77
2021/01/16 08:14:20;;;;;;;12.05;6.68;;;;;;;-4.06;84.33;102683.94;4965276;28;20039;-76
2021/01/16 08:16:56;;;;;;;12.23;6.30;;;;;;;-4.09;85.32;102680.53;4956512;29;20069;-77
2021/01/16 08:19:38;;;;;;;11.95;6.68;;;;;;;-4.13;85.01;102680.50;4926292;29;20051;-77
2021/01/16 08:22:15;;;;;;;11.30;6.40;;;;;;;-4.04;85.74;102682.22;4922466;29;20055;-77
2021/01/16 08:25:02;;;;;;;12.35;6.53;;;;;;;-4.04;85.50;102683.94;4922549;29;20042;-77
2021/01/16 08:27:39;;;;;;;13.80;6.55;;;;;;;-3.95;85.70;102691.59;4953267;28;20030;-76
2021/01/16 08:30:09;;;;;;;10.32;6.03;;;;;;;-3.89;85.55;102690.72;4977135;28;20511;-78
2021/01/16 08:33:12;;;;;;;10.35;6.35;;;;;;;-3.75;85.18;102694.94;4944430;28;20489;-78
2021/01/16 08:35:37;;;;;;;9.38;6.10;;;;;;;-3.43;83.37;102700.75;4992691;28;20114;-77
2021/01/16 08:38:15;;;;;;;9.98;6.25;;;;;;;-3.44;83.40;102702.47;4932189;29;20045;-77
2021/01/16 08:40:42;;;;;;;10.65;6.45;;;;;;;-3.41;83.40;102699.91;4951259;29;20425;-78
2021/01/16 08:43:07;;;;;;;9.65;6.15;;;;;;;-3.40;82.93;102701.59;4939960;29;20733;-79
2021/01/16 08:45:33;;;;;;;10.48;6.30;;;;;;;-3.30;83.21;102691.25;4971229;28;20070;-78
2021/01/16 08:48:00;;;;;;;10.38;6.13;;;;;;;-3.01;81.54;102688.50;4977102;28;20050;-77
2021/01/16 08:50:34;;;;;;;10.75;6.25;;;;;;;-2.80;79.62;102685.75;4961905;28;20058;-77
2021/01/16 08:53:00;;;;;;;9.55;5.80;;;;;;;-2.65;77.43;102671.94;4948625;29;20490;-80
2021/01/16 08:55:27;;;;;;;9.55;5.90;;;;;;;-2.74;78.69;102677.16;4956956;28;20030;-78
2021/01/16 08:58:07;;;;;;;12.65;6.38;;;;;;;-2.65;77.87;102663.38;4953246;28;20224;-76
2021/01/16 09:00:34;;;;;;;9.60;6.13;;;;;;;-2.62;77.96;102669.34;4937180;29;20063;-78
2021/01/16 09:03:06;;;;;;;10.45;6.10;;;;;;;-2.49;76.84;102667.47;4924916;29;20047;-78
2021/01/16 09:05:33;;;;;;;7.82;5.10;;;;;;;-2.37;75.99;102669.09;4923355;29;20055;-78
2021/01/16 09:07:59;;;;;;;13.52;5.57;;;;;;;-2.08;73.67;102671.34;4950019;28;20115;-77
2021/01/16 09:10:26;;;;;;;9.15;5.22;;;;;;;-1.87;72.07;102672.78;4975025;28;20034;-78
2021/01/16 09:12:52;;;;;;;9.25;4.60;;;;;;;-1.84;73.05;102685.63;4943704;29;20483;-78
2021/01/16 09:15:26;;;;;;;7.10;4.78;;;;;;;-1.80;73.06;102677.00;4939837;29;20046;-77
2021/01/16 09:18:12;;;;;;;8.25;4.20;;;;;;;-1.68;71.55;102672.56;4940148;29;20039;-77
2021/01/16 09:20:40;;;;;;;5.72;3.75;;;;;;;-1.54;71.10;102669.78;4924443;29;20035;-77
2021/01/16 09:23:18;;;;;;;5.50;3.70;;;;;;;-1.43;69.30;102671.38;4949532;28;20551;-80
2021/01/16 09:25:45;;;;;;;6.22;3.50;;;;;;;-1.30;68.46;102666.91;4954965;28;20045;-77
2021/01/16 09:28:11;;;;;;;8.07;3.90;;;;;;;-1.21;69.22;102666.72;4921963;29;20051;-77
2021/01/16 09:30:36;;;;;;;6.32;3.70;;;;;;;-1.13;68.98;102666.66;4936936;29;20042;-76
2021/01/16 09:33:22;;;;;;;5.93;3.50;;;;;;;-1.08;68.53;102659.66;4934916;29;20114;-77
2021/01/16 09:35:48;;;;;;;5.43;3.38;;;;;;;-1.06;67.92;102664.81;4947490;29;20032;-77
2021/01/16 09:38:21;;;;;;;5.70;3.80;;;;;;;-1.08;67.29;102664.81;4949913;28;20050;-79
2021/01/16 09:40:49;;;;;;;7.63;4.28;;;;;;;-0.96;66.50;102666.38;4967510;28;20073;-77
2021/01/16 09:43:20;;;;;;;4.88;3.20;;;;;;;-0.96;66.95;102665.50;4936349;29;20028;-77
2021/01/16 09:46:03;;;;;;;4.68;3.40;;;;;;;-1.01;67.00;102665.59;4926318;29;20039;-77
2021/01/16 09:48:32;;;;;;;4.72;3.65;;;;;;;-0.91;66.60;102663.72;4926752;29;20043;-76
2021/01/16 09:50:59;;;;;;;5.90;3.63;;;;;;;-0.92;67.62;102662.00;4938169;29;20058;-77
2021/01/16 09:53:25;;;;;;;5.55;3.88;;;;;;;-1.02;68.43;102662.19;4920561;29;20032;-77
2021/01/16 09:55:55;;;;;;;6.43;3.97;;;;;;;-0.92;67.52;102659.41;4941584;29;20040;-77
2021/01/16 09:58:35;;;;;;;6.30;3.92;;;;;;;-0.87;67.58;102657.63;4905039;29;20490;-77
2021/01/16 10:01:19;;;;;;;6.22;3.95;;;;;;;-0.83;66.96;102649.84;4904367;29;20046;-77
2021/01/16 10:03:46;;;;;;;6.15;4.05;;;;;;;-0.86;68.06;102646.47;4914245;29;20043;-77
2021/01/16 10:06:17;;;;;;;6.43;3.92;;;;;;;-0.85;67.25;102654.16;4926789;28;20484;-77
2021/01/16 10:08:42;;;;;;;6.43;4.18;;;;;;;-0.78;67.45;102654.91;4975020;28;20030;-77
2021/01/16 10:11:10;;;;;;;7.28;4.75;;;;;;;-0.80;66.54;102647.19;4970941;28;20043;-77
2021/01/16 10:13:37;;;;;;;5.50;3.95;;;;;;;-0.74;67.46;102643.66;4922250;29;20046;-79
2021/01/16 10:16:05;;;;;;;6.45;4.28;;;;;;;-0.75;67.46;102641.09;4932142;28;20046;-78
2021/01/16 10:18:32;;;;;;;7.18;4.68;;;;;;;-0.79;67.21;102653.22;4938679;29;20035;-78
2021/01/16 10:21:02;;;;;;;9.93;4.97;;;;;;;-0.81;67.28;102647.22;4938006;28;20481;-77
2021/01/16 10:23:29;;;;;;;7.07;4.70;;;;;;;-0.92;67.51;102631.94;4947093;28;20042;-77
2021/01/16 10:26:05;;;;;;;6.63;4.70;;;;;;;-0.88;68.14;102623.28;4956745;28;20050;-77
2021/01/16 10:28:33;;;;;;;8.10;4.80;;;;;;;-0.88;68.08;102614.72;4970710;28;20658;-77
2021/01/16 10:31:04;;;;;;;9.88;5.43;;;;;;;-0.83;68.00;102616.34;4971218;28;20181;-77
2021/01/16 10:33:42;;;;;;;7.70;5.05;;;;;;;-0.87;68.66;102612.09;4941494;28;20038;-77
2021/01/16 10:36:13;;;;;;;8.73;5.15;;;;;;;-0.98;68.38;102607.16;4961564;28;20044;-79
2021/01/16 10:38:43;;;;;;;11.60;5.47;;;;;;;-1.01;69.14;102602.03;4925459;29;20044;-76
2021/01/16 10:41:10;;;;;;;8.93;5.25;;;;;;;-0.95;69.14;102588.19;4937620;29;20051;-77
2021/01/16 10:43:36;;;;;;;7.93;5.15;;;;;;;-0.98;70.15;102593.41;4934297;28;20031;-77
2021/01/16 10:46:08;;;;;;;8.90;5.45;;;;;;;-0.98;69.73;102589.13;4955223;28;20594;-77
2021/01/16 10:48:39;;;;;;;9.10;5.57;;;;;;;-0.92;69.35;102592.44;4928150;29;20074;-77
2021/01/16 10:51:10;;;;;;;9.57;5.68;;;;;;;-0.94;69.15;102583.88;4922928;28;20043;-76
2021/01/16 10:53:38;;;;;;;8.65;5.50;;;;;;;-1.08;69.96;102590.13;4939870;28;20038;-77
2021/01/16 10:56:27;;;;;;;9.52;5.75;;;;;;;-1.00;70.52;102595.16;4933973;29;20163;-77
2021/01/16 10:59:08;;;;;;;8.90;5.65;;;;;;;-0.79;67.91;102581.91;4911441;29;20091;-77
2021/01/16 11:01:49;;;;;;;7.13;4.72;;;;;;;-0.79;67.87;102584.47;4934240;29;20474;-78
2021/01/16 11:04:20;;;;;;;5.68;4.30;;;;;;;-0.66;67.42;102579.94;4902911;29;20083;-79
2021/01/16 11:07:11;;;;;;;8.52;5.45;;;;;;;-0.71;67.88;102573.19;4933536;29;20095;-77
2021/01/16 11:09:36;;;;;;;8.52;5.18;;;;;;;-0.75;66.32;102574.97;4934528;29;20036;-77
2021/01/16 11:12:06;;;;;;;9.20;5.60;;;;;;;-0.76;68.74;102575.84;4936953;29;20505;-77
2021/01/16 11:14:42;;;;;;;8.32;5.07;;;;;;;-0.65;66.60;102568.75;4935359;28;20102;-78
2021/01/16 11:17:10;;;;;;;9.02;5.60;;;;;;;-0.62;67.29;102565.28;4963159;28;20101;-79
2021/01/16 11:19:41;;;;;;;7.68;4.72;;;;;;;-0.63;66.90;102559.25;4938650;29;20042;-80
2021/01/16 11:22:08;;;;;;;8.93;5.53;;;;;;;-0.52;66.88;102553.06;4940736;29;20039;-78
2021/01/16 11:24:52;;;;;;;7.43;4.80;;;;;;;-0.55;68.07;102546.22;4918789;29;20506;-78
2021/01/16 11:27:20;;;;;;;8.30;5.03;;;;;;;-0.59;69.51;102545.41;4934887;29;20524;-77
2021/01/16 11:29:46;;;;;;;10.48;5.28;;;;;;;-0.57;68.04;102542.81;4903099;29;20586;-79
2021/01/16 11:32:19;;;;;;;9.65;6.10;;;;;;;-0.64;67.79;102536.09;4934534;29;20414;-77
2021/01/16 11:35:04;;;;;;;;;;;;;;;-0.64;68.79;102538.66;4941404;29;20035;-77